Time;durP1;ratioP1;P1;durP2;ratioP2;P2;SDS_P1;SDS_P2;PMS_P1;PMS_P2;Temp;Humidity;BMP_temperature;BMP_pressure;BME280_temperature;BME280_humidity;BME280_pressure;Samples;Min_cycle;Max_cycle;Signal;HPM_P1;HPM_P2
2021/10/04 00:01:50;;;;;;;16.30;2.20;;;12.40;99.90;;;;;;5053322;28;20551;-78
2021/10/04 00:04:16;;;;;;;15.82;2.80;;;12.40;99.90;;;;;;5054672;28;20078;-77
2021/10/04 00:06:41;;;;;;;13.15;2.17;;;12.50;99.90;;;;;;5054536;28;20052;-78
2021/10/04 00:09:07;;;;;;;13.77;2.13;;;12.40;99.90;;;;;;5054785;28;20219;-76
2021/10/04 00:11:33;;;;;;;16.40;2.13;;;12.50;99.90;;;;;;5054572;28;20522;-77
2021/10/04 00:13:59;;;;;;;9.80;1.95;;;12.50;99.90;;;;;;5054501;28;20509;-78
2021/10/04 00:16:24;;;;;;;16.98;2.50;;;12.40;99.90;;;;;;5054570;28;20068;-78
2021/10/04 00:18:50;;;;;;;12.10;2.10;;;12.30;99.90;;;;;;5054389;28;20096;-78
2021/10/04 00:21:16;;;;;;;15.90;2.30;;;12.40;99.90;;;;;;5054265;28;20060;-78
2021/10/04 00:23:42;;;;;;;17.90;2.38;;;12.40;99.90;;;;;;5054693;28;20040;-78
2021/10/04 00:26:08;;;;;;;14.80;2.25;;;12.50;99.90;;;;;;5054488;28;20028;-78
2021/10/04 00:28:33;;;;;;;10.93;1.70;;;12.60;99.90;;;;;;5054146;28;20489;-78
2021/10/04 00:30:59;;;;;;;14.38;2.20;;;12.60;99.90;;;;;;5054044;28;20077;-78
2021/10/04 00:33:25;;;;;;;13.70;2.20;;;12.70;99.90;;;;;;5054140;28;20029;-77
2021/10/04 00:35:51;;;;;;;15.63;2.20;;;12.70;99.90;;;;;;5054066;28;20107;-77
2021/10/04 00:38:17;;;;;;;16.27;2.33;;;12.70;99.90;;;;;;5053983;28;20053;-77
2021/10/04 00:40:42;;;;;;;17.67;2.63;;;12.80;99.90;;;;;;5052602;28;20032;-77
2021/10/04 00:43:08;;;;;;;18.35;2.13;;;12.80;99.90;;;;;;5052672;28;20025;-78
2021/10/04 00:45:34;;;;;;;17.65;2.25;;;12.70;99.90;;;;;;5053954;28;20605;-78
2021/10/04 00:48:00;;;;;;;15.70;2.58;;;12.80;99.90;;;;;;5052563;28;20028;-77
2021/10/04 00:50:26;;;;;;;;;;;12.90;99.90;;;;;;5054177;28;20032;-77
2021/10/04 00:52:52;;;;;;;17.17;2.40;;;12.80;99.90;;;;;;5053811;28;20391;-77
2021/10/04 00:55:19;;;;;;;16.58;2.63;;;12.80;99.90;;;;;;5053663;28;20017;-76
2021/10/04 00:57:45;;;;;;;18.38;2.50;;;12.90;99.90;;;;;;5053661;28;20110;-77
2021/10/04 01:00:15;;;;;;;15.73;2.20;;;12.90;99.90;;;;;;5054040;28;20017;-77
2021/10/04 01:02:41;;;;;;;19.55;2.22;;;12.80;99.90;;;;;;5052264;28;20025;-78
2021/10/04 01:05:08;;;;;;;15.57;2.40;;;12.80;99.90;;;;;;5053712;28;20021;-77
2021/10/04 01:07:34;;;;;;;12.52;1.85;;;12.80;99.90;;;;;;5053435;28;20505;-78
2021/10/04 01:10:00;;;;;;;15.10;1.65;;;12.80;99.90;;;;;;5052160;28;20063;-77
2021/10/04 01:12:26;;;;;;;15.23;2.33;;;12.90;99.90;;;;;;5053387;28;20493;-77
2021/10/04 01:14:52;;;;;;;8.32;1.95;;;13.00;99.90;;;;;;5052059;28;20063;-78
2021/10/04 01:17:18;;;;;;;13.55;2.05;;;13.00;99.90;;;;;;5052855;28;20021;-78
2021/10/04 01:19:44;;;;;;;18.63;2.20;;;13.00;99.90;;;;;;5053330;28;20078;-78
2021/10/04 01:22:10;;;;;;;12.35;2.30;;;13.00;99.90;;;;;;5053397;28;20029;-77
2021/10/04 01:24:36;;;;;;;14.65;2.25;;;13.00;99.90;;;;;;5053222;28;20096;-77
2021/10/04 01:27:03;;;;;;;15.48;2.17;;;13.00;99.90;;;;;;5051928;28;20028;-77
2021/10/04 01:29:29;;;;;;;13.80;1.90;;;12.80;99.90;;;;;;5051629;28;20033;-77
2021/10/04 01:31:55;;;;;;;;;;;12.90;99.90;;;;;;5053812;28;20481;-78
2021/10/04 01:34:21;;;;;;;15.00;2.28;;;12.90;99.90;;;;;;5053273;28;19926;-78
2021/10/04 01:36:47;;;;;;;15.63;2.40;;;12.80;99.90;;;;;;5053119;28;20017;-77
2021/10/04 01:39:12;;;;;;;17.05;2.45;;;12.80;99.90;;;;;;5053065;28;20044;-78
2021/10/04 01:41:38;;;;;;;15.65;2.20;;;12.70;99.90;;;;;;5052999;28;20028;-77
2021/10/04 01:44:05;;;;;;;11.88;1.92;;;13.00;99.90;;;;;;5053044;28;20025;-78
2021/10/04 01:46:31;;;;;;;14.45;2.08;;;13.00;99.90;;;;;;5051726;28;20029;-78
2021/10/04 01:48:56;;;;;;;18.38;2.42;;;12.90;99.90;;;;;;5051775;28;20519;-78
2021/10/04 01:51:22;;;;;;;15.60;2.15;;;12.90;99.90;;;;;;5052964;28;20031;-78
2021/10/04 01:53:48;;;;;;;12.93;2.20;;;12.90;99.90;;;;;;5052934;28;20079;-77
2021/10/04 01:56:14;;;;;;;12.82;2.30;;;12.90;99.90;;;;;;5052877;28;20025;-78
2021/10/04 01:58:40;;;;;;;;;;;12.90;99.90;;;;;;5053475;28;20029;-77
2021/10/04 02:01:06;;;;;;;12.82;2.08;;;12.80;99.90;;;;;;5052899;28;19986;-77
2021/10/04 02:03:32;;;;;;;16.55;2.20;;;12.80;99.90;;;;;;5052891;28;20021;-78
2021/10/04 02:05:58;;;;;;;15.35;2.35;;;12.90;99.90;;;;;;5053079;28;20028;-78
2021/10/04 02:08:25;;;;;;;15.38;2.92;;;12.80;99.90;;;;;;5052892;28;20036;-78
2021/10/04 02:10:51;;;;;;;13.38;1.90;;;12.90;99.90;;;;;;5052856;28;20024;-77
2021/10/04 02:13:17;;;;;;;15.35;2.25;;;12.90;99.90;;;;;;5051597;28;20120;-78
2021/10/04 02:15:43;;;;;;;21.25;2.67;;;12.90;99.90;;;;;;5053045;28;20021;-77
2021/10/04 02:18:10;;;;;;;12.70;2.20;;;12.80;99.90;;;;;;5052939;28;20095;-77
2021/10/04 02:20:40;;;;;;;13.30;2.05;;;12.90;99.90;;;;;;5052844;28;20568;-77
2021/10/04 02:23:08;;;;;;;14.13;2.20;;;13.00;99.90;;;;;;5052762;28;20021;-78
2021/10/04 02:25:46;;;;;;;13.73;2.30;;;12.90;99.90;;;;;;5052765;28;20071;-78
2021/10/04 02:28:13;;;;;;;16.63;2.40;;;12.90;99.90;;;;;;5051199;28;20445;-77
2021/10/04 02:30:39;;;;;;;16.15;2.30;;;13.00;99.90;;;;;;5054773;28;20049;-77
2021/10/04 02:33:06;;;;;;;20.38;2.67;;;13.00;99.90;;;;;;5055124;28;20024;-77
2021/10/04 02:35:32;;;;;;;13.38;1.88;;;12.90;99.90;;;;;;5056328;28;20029;-76
2021/10/04 02:37:58;;;;;;;;;;;12.90;99.90;;;;;;5057090;28;20028;-77
2021/10/04 02:40:24;;;;;;;14.30;2.63;;;12.90;99.90;;;;;;5056297;28;19905;-77
2021/10/04 02:42:51;;;;;;;16.77;2.50;;;13.00;99.90;;;;;;5054945;28;20036;-76
2021/10/04 02:45:18;;;;;;;11.75;2.00;;;12.90;99.90;;;;;;5054869;28;20481;-76
2021/10/04 02:47:47;;;;;;;12.30;2.22;;;12.90;99.90;;;;;;5054868;28;20420;-77
2021/10/04 02:50:16;;;;;;;20.35;2.90;;;12.90;99.90;;;;;;5056150;28;20021;-77
2021/10/04 02:52:42;;;;;;;16.42;2.38;;;12.90;99.90;;;;;;5054826;28;20095;-77
2021/10/04 02:55:08;;;;;;;18.98;2.50;;;12.90;99.90;;;;;;5056027;28;20017;-76
2021/10/04 02:57:34;;;;;;;;;;;12.80;99.90;;;;;;5056359;28;20049;-77
2021/10/04 03:00:00;;;;;;;12.98;2.22;;;12.80;99.90;;;;;;5054669;28;20336;-76
2021/10/04 03:02:26;;;;;;;17.90;2.50;;;12.90;99.90;;;;;;5055829;28;20503;-77
2021/10/04 03:04:51;;;;;;;;;;;12.80;99.90;;;;;;5054994;28;20492;-77
2021/10/04 03:07:17;;;;;;;15.82;2.40;;;12.80;99.90;;;;;;5055852;28;19908;-77
2021/10/04 03:09:43;;;;;;;14.55;1.85;;;12.80;99.90;;;;;;5055831;28;20018;-77
2021/10/04 03:12:09;;;;;;;15.55;2.58;;;12.70;99.90;;;;;;5055795;28;20404;-77
2021/10/04 03:14:35;;;;;;;12.07;2.30;;;12.80;99.90;;;;;;5054483;28;20401;-76
2021/10/04 03:17:01;;;;;;;16.35;2.60;;;12.80;99.90;;;;;;5055835;28;20025;-77
2021/10/04 03:19:27;;;;;;;;;;;12.70;99.90;;;;;;5056106;28;20025;-77
2021/10/04 03:21:53;;;;;;;16.13;2.47;;;12.70;99.90;;;;;;5055689;28;19931;-77
2021/10/04 03:24:19;;;;;;;15.48;2.33;;;12.70;99.90;;;;;;5055543;28;20029;-77
2021/10/04 03:26:45;;;;;;;16.92;2.35;;;12.70;99.90;;;;;;5055520;28;20029;-76
2021/10/04 03:29:10;;;;;;;18.35;2.63;;;12.80;99.90;;;;;;5055634;28;20032;-77
2021/10/04 03:31:38;;;;;;;13.73;2.22;;;12.80;99.90;;;;;;5055010;28;20048;-77
2021/10/04 03:34:04;;;;;;;12.25;2.15;;;12.80;99.90;;;;;;5055707;28;20025;-77
2021/10/04 03:36:31;;;;;;;12.45;2.10;;;12.80;99.90;;;;;;5055305;28;20047;-76
2021/10/04 03:38:57;;;;;;;11.13;1.88;;;12.80;99.90;;;;;;5055272;28;20028;-77
2021/10/04 03:41:23;;;;;;;11.68;1.77;;;12.80;99.90;;;;;;5053417;28;20586;-76
2021/10/04 03:43:50;;;;;;;9.93;1.77;;;12.80;99.90;;;;;;5053841;28;20120;-77
2021/10/04 03:46:15;;;;;;;14.57;2.05;;;12.90;99.90;;;;;;5055277;28;20021;-77
2021/10/04 03:48:41;;;;;;;9.70;1.33;;;12.80;99.90;;;;;;5055101;28;20028;-77
2021/10/04 03:51:07;;;;;;;14.63;2.22;;;12.90;99.90;;;;;;5055096;28;20025;-77
2021/10/04 03:53:33;;;;;;;13.63;1.92;;;13.00;99.90;;;;;;5055511;28;20021;-77
2021/10/04 03:55:58;;;;;;;10.65;1.90;;;12.90;99.90;;;;;;5055048;28;20029;-77
2021/10/04 03:58:24;;;;;;;9.88;1.80;;;12.90;99.90;;;;;;5055127;28;20056;-77
2021/10/04 04:00:50;;;;;;;8.18;1.50;;;12.90;99.90;;;;;;5054800;28;20025;-77
2021/10/04 04:03:16;;;;;;;13.75;2.28;;;12.90;99.90;;;;;;5054836;28;20105;-76
2021/10/04 04:05:42;;;;;;;13.27;1.92;;;12.80;99.90;;;;;;5055178;28;20049;-78
2021/10/04 04:08:08;;;;;;;16.02;2.10;;;12.80;99.90;;;;;;5055017;28;20021;-77
2021/10/04 04:10:33;;;;;;;14.85;2.10;;;12.80;99.90;;;;;;5054861;28;20025;-77
2021/10/04 04:13:00;;;;;;;12.20;1.77;;;12.80;99.90;;;;;;5054706;28;20052;-77
2021/10/04 04:15:26;;;;;;;12.98;2.05;;;12.70;99.90;;;;;;5053332;28;20039;-77
2021/10/04 04:17:51;;;;;;;10.07;2.00;;;12.80;99.90;;;;;;5054763;28;20085;-77
2021/10/04 04:20:17;;;;;;;11.18;2.08;;;12.70;99.90;;;;;;5055053;28;20029;-77
2021/10/04 04:22:44;;;;;;;10.65;1.88;;;12.70;99.90;;;;;;5053110;28;20025;-76
2021/10/04 04:25:10;;;;;;;17.02;2.38;;;12.80;99.90;;;;;;5054412;28;20481;-76
2021/10/04 04:27:36;;;;;;;11.63;1.50;;;12.70;99.90;;;;;;5054323;28;20025;-77
2021/10/04 04:30:04;;;;;;;13.63;1.90;;;12.70;99.90;;;;;;5054228;28;20072;-78
2021/10/04 04:32:30;;;;;;;10.45;1.70;;;12.60;99.90;;;;;;5052939;28;20035;-77
2021/10/04 04:34:56;;;;;;;12.88;1.73;;;12.70;99.90;;;;;;5052925;28;20021;-77
2021/10/04 04:37:21;;;;;;;11.25;1.70;;;12.60;99.90;;;;;;5052859;28;20059;-77
2021/10/04 04:39:47;;;;;;;8.95;1.65;;;12.60;99.90;;;;;;5052856;28;20473;-76
2021/10/04 04:42:13;;;;;;;8.85;1.40;;;12.50;99.90;;;;;;5054080;28;20037;-76
2021/10/04 04:44:39;;;;;;;8.77;1.48;;;12.60;99.90;;;;;;5054037;28;20096;-77
2021/10/04 04:47:04;;;;;;;6.72;1.48;;;12.70;99.90;;;;;;5054175;28;20033;-77
2021/10/04 04:49:30;;;;;;;12.00;1.90;;;12.70;99.90;;;;;;5052667;28;20032;-77
2021/10/04 04:51:58;;;;;;;8.73;1.40;;;12.60;99.90;;;;;;5053415;28;20028;-77
2021/10/04 04:54:25;;;;;;;11.77;1.90;;;12.50;99.90;;;;;;5053669;28;20052;-76
2021/10/04 04:56:55;;;;;;;12.32;1.75;;;12.50;99.90;;;;;;5053820;28;20416;-76
2021/10/04 04:59:22;;;;;;;8.15;1.60;;;12.50;99.90;;;;;;5053707;28;20025;-77
2021/10/04 05:01:47;;;;;;;9.38;1.73;;;12.50;99.90;;;;;;5052363;28;20075;-76
2021/10/04 05:04:13;;;;;;;9.35;1.23;;;12.60;99.90;;;;;;5053742;28;20406;-76
2021/10/04 05:06:39;;;;;;;9.73;1.52;;;12.50;99.90;;;;;;5052345;28;20112;-77
2021/10/04 05:09:05;;;;;;;10.18;1.73;;;12.50;99.90;;;;;;5053593;28;20391;-76
2021/10/04 05:11:31;;;;;;;9.18;1.50;;;12.50;99.90;;;;;;5053556;28;20033;-77
2021/10/04 05:13:57;;;;;;;10.13;2.03;;;12.40;99.90;;;;;;5053610;28;20032;-77
2021/10/04 05:16:23;;;;;;;9.18;1.45;;;12.40;99.90;;;;;;5053519;28;20039;-77
2021/10/04 05:18:49;;;;;;;9.73;1.50;;;12.40;99.90;;;;;;5053816;28;20025;-76
2021/10/04 05:21:14;;;;;;;10.75;1.55;;;12.30;99.90;;;;;;5053335;28;20051;-77
2021/10/04 05:23:40;;;;;;;8.63;1.33;;;12.30;99.90;;;;;;5053396;28;20048;-77
2021/10/04 05:26:06;;;;;;;6.95;1.25;;;12.30;99.90;;;;;;5053300;28;20053;-77
2021/10/04 05:28:32;;;;;;;8.20;1.40;;;12.20;99.90;;;;;;5052067;28;20436;-76
2021/10/04 05:30:58;;;;;;;7.95;1.30;;;12.30;99.90;;;;;;5053229;28;20047;-76
2021/10/04 05:33:24;;;;;;;7.97;1.30;;;12.30;99.90;;;;;;5052001;28;20021;-76
2021/10/04 05:35:50;;;;;;;10.70;1.60;;;12.30;99.90;;;;;;5053376;28;20032;-77
2021/10/04 05:38:16;;;;;;;7.78;1.58;;;12.20;99.90;;;;;;5053201;28;20029;-77
2021/10/04 05:40:42;;;;;;;7.85;1.20;;;12.20;99.90;;;;;;5053213;28;20028;-76
2021/10/04 05:43:08;;;;;;;;;;;12.20;99.90;;;;;;5053531;28;20036;-77
2021/10/04 05:45:34;;;;;;;8.50;1.45;;;12.20;99.90;;;;;;5053078;28;19987;-76
2021/10/04 05:47:59;;;;;;;9.10;1.58;;;12.20;99.90;;;;;;5053134;28;20059;-77
2021/10/04 05:50:25;;;;;;;8.27;0.95;;;12.20;99.90;;;;;;5053149;28;20490;-76
2021/10/04 05:52:52;;;;;;;6.70;1.30;;;12.20;99.90;;;;;;5053089;28;20026;-77
2021/10/04 05:55:18;;;;;;;8.32;1.30;;;12.20;99.90;;;;;;5053308;28;20032;-77
2021/10/04 05:57:44;;;;;;;8.60;1.30;;;12.20;99.90;;;;;;5053139;28;20102;-76
2021/10/04 06:00:12;;;;;;;9.00;1.58;;;12.20;99.90;;;;;;5053022;28;20021;-78
2021/10/04 06:02:38;;;;;;;8.52;1.55;;;12.20;99.90;;;;;;5051541;28;20493;-77
2021/10/04 06:05:06;;;;;;;8.98;1.50;;;12.20;99.90;;;;;;5056257;28;20020;-77
2021/10/04 06:07:32;;;;;;;9.05;1.52;;;12.10;99.90;;;;;;5057030;28;20036;-77
2021/10/04 06:09:57;;;;;;;9.45;1.30;;;12.00;99.90;;;;;;5055800;28;20108;-77
2021/10/04 06:12:26;;;;;;;9.68;1.55;;;12.10;99.90;;;;;;5057011;28;20523;-78
2021/10/04 06:14:57;;;;;;;8.10;1.20;;;12.10;99.90;;;;;;5056940;28;20446;-78
2021/10/04 06:17:23;;;;;;;10.40;1.67;;;12.10;99.90;;;;;;5055261;28;20513;-78
2021/10/04 06:19:49;;;;;;;7.60;1.35;;;12.10;99.90;;;;;;5056833;28;20025;-77
2021/10/04 06:22:15;;;;;;;8.70;1.70;;;12.10;99.90;;;;;;5056797;28;20497;-77
2021/10/04 06:24:41;;;;;;;8.00;1.58;;;12.10;99.90;;;;;;5056668;28;20104;-77
2021/10/04 06:27:07;;;;;;;10.73;1.77;;;12.10;99.90;;;;;;5056894;28;20104;-77
2021/10/04 06:29:32;;;;;;;12.00;1.88;;;12.10;99.90;;;;;;5056370;28;20025;-76
2021/10/04 06:31:58;;;;;;;11.13;2.40;;;12.20;99.90;;;;;;5056624;28;20033;-76
2021/10/04 06:34:24;;;;;;;14.27;3.50;;;12.30;99.90;;;;;;5056546;28;20029;-75
2021/10/04 06:36:50;;;;;;;14.38;3.72;;;12.50;99.90;;;;;;5055136;28;20066;-78
2021/10/04 06:39:15;;;;;;;15.80;5.35;;;12.70;99.90;;;;;;5055064;28;20036;-77
2021/10/04 06:41:41;;;;;;;24.52;9.02;;;13.00;99.90;;;;;;5055056;28;20040;-78
2021/10/04 06:44:08;;;;;;;17.02;7.82;;;13.00;99.90;;;;;;5055125;28;20539;-77
2021/10/04 06:46:35;;;;;;;18.95;6.70;;;13.00;99.90;;;;;;5056232;28;20021;-77
2021/10/04 06:49:01;;;;;;;18.35;5.18;;;13.00;99.90;;;;;;5056552;28;20525;-77
2021/10/04 06:51:26;;;;;;;13.57;3.15;;;12.90;99.90;;;;;;5056369;28;20057;-77
2021/10/04 06:53:52;;;;;;;10.80;2.25;;;13.00;99.90;;;;;;5056162;28;20048;-78
2021/10/04 06:56:18;;;;;;;11.20;2.13;;;13.40;99.90;;;;;;5054800;28;20113;-78
2021/10/04 06:58:43;;;;;;;13.75;2.40;;;13.60;99.90;;;;;;5054827;28;20029;-76
2021/10/04 07:01:09;;;;;;;8.43;1.98;;;13.70;99.90;;;;;;5055938;28;20029;-77
2021/10/04 07:03:35;;;;;;;9.02;1.88;;;13.90;99.90;;;;;;5056021;28;20021;-76
2021/10/04 07:06:01;;;;;;;;;;;14.10;99.90;;;;;;5056448;28;20100;-79
2021/10/04 07:08:26;;;;;;;;;;;14.30;99.90;;;;;;5056266;28;19943;-77
2021/10/04 07:10:52;;;;;;;14.02;2.17;;;14.60;99.90;;;;;;5056023;28;19931;-77
2021/10/04 07:13:18;;;;;;;;;;;14.30;99.90;;;;;;5054930;28;20453;-77
2021/10/04 07:15:45;;;;;;;11.25;2.00;;;14.30;99.90;;;;;;5054980;28;19942;-77
2021/10/04 07:18:10;;;;;;;8.93;2.00;;;14.80;99.90;;;;;;5055676;28;20064;-77
2021/10/04 07:20:36;;;;;;;;;;;15.30;99.90;;;;;;5054788;28;20041;-78
2021/10/04 07:23:04;;;;;;;13.07;1.80;;;15.10;99.90;;;;;;5055569;28;19908;-78
2021/10/04 07:25:31;;;;;;;9.52;1.98;;;15.30;99.90;;;;;;5054260;28;20115;-79
2021/10/04 07:27:57;;;;;;;9.07;1.88;;;15.90;99.90;;;;;;5055513;28;20454;-78
2021/10/04 07:30:23;;;;;;;9.98;1.88;;;16.70;99.90;;;;;;5055233;28;20068;-78
2021/10/04 07:32:49;;;;;;;10.68;2.03;;;16.60;99.90;;;;;;5054060;28;20478;-78
2021/10/04 07:35:15;;;;;;;12.07;2.25;;;16.90;99.90;;;;;;5055421;28;20195;-78
2021/10/04 07:37:42;;;;;;;11.07;2.28;;;16.90;99.90;;;;;;5055262;28;20028;-78
2021/10/04 07:40:09;;;;;;;8.57;1.90;;;17.10;99.90;;;;;;5055165;28;20389;-78
2021/10/04 07:42:35;;;;;;;9.63;2.10;;;17.80;99.90;;;;;;5055115;28;20021;-78
2021/10/04 07:45:01;;;;;;;9.30;2.13;;;17.90;99.90;;;;;;5055098;28;20047;-77
2021/10/04 07:47:27;;;;;;;11.52;2.20;;;17.90;99.90;;;;;;5054952;28;20025;-78
2021/10/04 07:49:53;;;;;;;9.20;2.22;;;18.60;99.90;;;;;;5053707;28;20021;-78
2021/10/04 07:52:19;;;;;;;11.13;2.10;;;18.60;99.90;;;;;;5055013;28;20038;-79
2021/10/04 07:54:45;;;;;;;10.40;1.98;;;18.80;99.90;;;;;;5055141;28;20025;-78
2021/10/04 07:57:13;;;;;;;21.25;7.15;;;19.40;99.90;;;;;;5055175;28;20102;-77
2021/10/04 07:59:40;;;;;;;11.68;3.13;;;18.80;99.90;;;;;;5054780;28;20029;-77
2021/10/04 08:02:07;;;;;;;9.15;2.13;;;19.40;99.90;;;;;;5054657;28;20036;-79
2021/10/04 08:04:34;;;;;;;9.68;1.98;;;19.20;99.90;;;;;;5054695;28;20075;-78
2021/10/04 08:07:00;;;;;;;12.95;2.25;;;19.10;99.90;;;;;;5053375;28;20021;-78
2021/10/04 08:09:26;;;;;;;12.05;2.13;;;18.70;99.90;;;;;;5054577;28;20021;-78
2021/10/04 08:11:51;;;;;;;9.40;1.98;;;18.70;99.90;;;;;;5053311;28;20055;-78
2021/10/04 08:14:18;;;;;;;7.68;1.92;;;19.10;99.90;;;;;;5054642;28;20370;-78
2021/10/04 08:16:43;;;;;;;10.80;2.38;;;19.60;99.90;;;;;;5053188;28;20036;-79
2021/10/04 08:19:09;;;;;;;10.90;2.17;;;19.20;99.90;;;;;;5054663;28;20389;-77
2021/10/04 08:21:35;;;;;;;12.00;2.30;;;19.60;99.90;;;;;;5054253;28;20393;-77
2021/10/04 08:24:01;;;;;;;12.52;2.50;;;19.40;99.90;;;;;;5054323;28;20428;-78
2021/10/04 08:26:28;;;;;;;12.90;2.38;;;20.10;99.90;;;;;;5054261;28;20036;-78
2021/10/04 08:28:54;;;;;;;13.23;2.42;;;20.50;99.90;;;;;;5054298;28;20099;-79
2021/10/04 08:31:21;;;;;;;9.60;2.30;;;20.20;99.90;;;;;;5053805;28;20053;-78
2021/10/04 08:33:48;;;;;;;9.13;2.22;;;20.10;99.90;;;;;;5052889;28;20028;-78
2021/10/04 08:36:14;;;;;;;9.00;2.17;;;20.40;99.90;;;;;;5054121;28;20511;-78
2021/10/04 08:38:40;;;;;;;10.00;2.50;;;20.40;99.90;;;;;;5053985;28;20096;-78
2021/10/04 08:41:05;;;;;;;8.85;2.17;;;21.30;99.90;;;;;;5054022;28;20048;-78
2021/10/04 08:43:31;;;;;;;13.13;2.40;;;21.60;99.80;;;;;;5052887;28;20481;-78
2021/10/04 08:46:00;;;;;;;12.10;2.13;;;19.90;99.90;;;;;;5053831;28;20020;-78
2021/10/04 08:48:27;;;;;;;8.90;2.20;;;19.60;99.90;;;;;;5053835;28;20021;-79
2021/10/04 08:50:55;;;;;;;11.05;2.20;;;21.40;99.90;;;;;;5053801;28;20066;-78
2021/10/04 08:53:21;;;;;;;10.30;2.28;;;22.00;98.80;;;;;;5053655;28;20473;-79
2021/10/04 08:55:47;;;;;;;10.40;2.35;;;23.90;96.30;;;;;;5053729;28;20029;-79
2021/10/04 08:58:13;;;;;;;9.40;2.38;;;23.80;93.10;;;;;;5054169;28;20024;-79
2021/10/04 09:00:39;;;;;;;8.70;2.08;;;24.50;92.80;;;;;;5053596;28;20021;-79
2021/10/04 09:03:05;;;;;;;10.18;2.28;;;25.40;91.30;;;;;;5053648;28;20036;-80
2021/10/04 09:05:32;;;;;;;10.30;2.60;;;25.60;86.40;;;;;;5053533;28;20021;-79
2021/10/04 09:08:14;;;;;;;10.63;2.33;;;25.90;85.40;;;;;;5053601;28;20368;-79
2021/10/04 09:10:43;;;;;;;11.52;2.50;;;26.30;82.50;;;;;;5053587;28;20028;-79
2021/10/04 09:13:11;;;;;;;8.75;2.45;;;25.20;81.50;;;;;;5053645;28;20025;-80
2021/10/04 09:15:40;;;;;;;10.27;2.35;;;25.70;82.10;;;;;;5053442;28;20516;-79
2021/10/04 09:18:15;;;;;;;9.02;2.08;;;27.10;77.00;;;;;;5053347;28;20033;-78
2021/10/04 09:20:53;;;;;;;13.55;3.30;;;25.60;77.60;;;;;;5053340;28;20028;-79
2021/10/04 09:23:30;;;;;;;9.90;2.60;;;26.80;77.20;;;;;;5051771;28;20029;-79
2021/10/04 09:25:55;;;;;;;9.68;2.65;;;27.10;75.80;;;;;;5053290;28;20024;-79
2021/10/04 09:28:29;;;;;;;9.43;2.33;;;27.10;72.80;;;;;;5053304;28;20493;-80
2021/10/04 09:31:19;;;;;;;10.05;2.65;;;27.40;71.30;;;;;;5053208;28;20094;-79
2021/10/04 09:34:07;;;;;;;10.30;2.40;;;28.30;70.00;;;;;;5053138;28;20028;-80
2021/10/04 09:36:52;;;;;;;10.88;2.80;;;28.70;69.20;;;;;;5053199;28;20031;-80
2021/10/04 09:39:33;;;;;;;10.27;2.50;;;30.20;65.10;;;;;;5052851;28;20104;-80
2021/10/04 09:42:06;;;;;;;9.52;2.42;;;29.60;64.20;;;;;;5051789;28;20055;-79
2021/10/04 09:44:48;;;;;;;10.68;2.60;;;27.50;64.70;;;;;;5051757;28;20390;-80
2021/10/04 09:47:25;;;;;;;12.20;2.85;;;29.00;65.00;;;;;;5053299;28;20021;-80
2021/10/04 09:50:17;;;;;;;10.68;2.30;;;29.50;63.70;;;;;;5053236;28;20469;-79
2021/10/04 09:52:50;;;;;;;8.32;2.13;;;26.40;68.80;;;;;;5050504;28;20037;-79
2021/10/04 09:55:35;;;;;;;10.48;2.20;;;27.30;69.70;;;;;;5053500;28;20029;-80
2021/10/04 09:58:05;;;;;;;7.88;1.90;;;28.20;66.70;;;;;;5051479;28;20017;-79
2021/10/04 10:00:40;;;;;;;9.93;2.50;;;25.90;69.40;;;;;;5052988;28;20032;-79
2021/10/04 10:03:06;;;;;;;11.55;2.20;;;24.80;73.50;;;;;;5051480;28;20029;-79
2021/10/04 10:05:35;;;;;;;9.75;2.20;;;25.70;72.40;;;;;;5051618;28;20025;-80
2021/10/04 10:08:02;;;;;;;10.77;2.63;;;28.40;67.00;;;;;;5052980;28;20017;-80
2021/10/04 10:10:28;;;;;;;9.60;2.70;;;28.90;64.80;;;;;;5052880;28;20021;-80
2021/10/04 10:12:55;;;;;;;11.65;2.33;;;29.00;64.90;;;;;;5052868;28;20101;-80
2021/10/04 10:15:27;;;;;;;12.52;2.22;;;26.90;64.30;;;;;;5051508;28;20036;-79
2021/10/04 10:18:18;;;;;;;11.80;2.70;;;25.40;70.60;;;;;;5052940;28;20025;-79
2021/10/04 10:20:45;;;;;;;7.78;1.95;;;25.30;72.10;;;;;;5051408;28;20033;-79
2021/10/04 10:23:11;;;;;;;10.35;2.38;;;24.70;73.40;;;;;;5052603;28;20485;-80
2021/10/04 10:25:40;;;;;;;8.90;2.55;;;27.80;68.90;;;;;;5052692;28;20554;-80
2021/10/04 10:28:33;;;;;;;7.15;1.83;;;28.50;64.70;;;;;;5051544;28;20060;-80
2021/10/04 10:31:01;;;;;;;8.02;2.28;;;29.30;61.50;;;;;;5051145;28;20056;-80
2021/10/04 10:33:45;;;;;;;8.32;2.13;;;28.60;59.80;;;;;;5052598;28;20055;-79
2021/10/04 10:36:12;;;;;;;10.30;2.55;;;29.10;63.50;;;;;;5052524;28;20017;-80
2021/10/04 10:38:59;;;;;;;7.65;2.17;;;27.60;64.50;;;;;;5052466;28;20025;-80
2021/10/04 10:41:25;;;;;;;9.02;1.90;;;26.80;63.70;;;;;;5052416;28;20546;-79
2021/10/04 10:44:11;;;;;;;7.38;1.80;;;24.90;68.00;;;;;;5051152;28;20025;-78
2021/10/04 10:46:53;;;;;;;6.93;1.60;;;24.00;71.70;;;;;;5052380;28;20033;-79
2021/10/04 10:49:58;;;;;;;9.73;1.67;;;23.10;74.20;;;;;;5052773;28;20018;-79
2021/10/04 10:52:28;;;;;;;9.20;1.70;;;24.20;68.90;;;;;;5054524;28;20059;-79
2021/10/04 10:54:54;;;;;;;5.13;1.45;;;23.20;69.40;;;;;;5056030;28;20025;-78
2021/10/04 10:57:23;;;;;;;7.97;1.80;;;22.70;72.00;;;;;;5056107;28;20021;-79
2021/10/04 11:00:33;;;;;;;7.07;1.67;;;24.30;69.50;;;;;;5054713;28;20053;-79
2021/10/04 11:03:18;;;;;;;10.43;2.00;;;22.70;70.60;;;;;;5053124;28;20516;-77
2021/10/04 11:05:56;;;;;;;7.82;1.60;;;21.60;74.30;;;;;;5056034;28;20021;-79
2021/10/04 11:08:28;;;;;;;7.75;1.70;;;21.40;75.30;;;;;;5056074;28;20030;-78
2021/10/04 11:10:55;;;;;;;6.10;1.60;;;21.90;75.30;;;;;;5054284;28;20027;-79
2021/10/04 11:13:35;;;;;;;5.22;1.50;;;23.90;70.60;;;;;;5056106;28;20080;-80
2021/10/04 11:16:24;;;;;;;6.78;1.45;;;26.10;65.40;;;;;;5055799;28;20029;-80
2021/10/04 11:18:51;;;;;;;7.40;1.90;;;25.80;64.30;;;;;;5054175;28;20036;-78
2021/10/04 11:21:23;;;;;;;8.00;1.60;;;23.70;69.80;;;;;;5054130;28;20025;-78
2021/10/04 11:23:55;;;;;;;9.15;1.40;;;21.90;71.70;;;;;;5055598;28;20021;-78
2021/10/04 11:26:24;;;;;;;7.97;1.70;;;20.70;76.70;;;;;;5055484;28;20032;-78
2021/10/04 11:28:53;;;;;;;8.52;1.58;;;20.30;79.50;;;;;;5055640;28;20431;-78
2021/10/04 11:31:21;;;;;;;8.23;2.03;;;19.80;81.90;;;;;;5055164;28;20045;-77
2021/10/04 11:33:58;;;;;;;11.88;1.55;;;19.40;86.00;;;;;;5055408;28;20021;-78
2021/10/04 11:36:30;;;;;;;10.75;1.73;;;19.10;90.60;;;;;;5055517;28;20025;-78
2021/10/04 11:39:06;;;;;;;7.95;1.52;;;18.80;93.30;;;;;;5055269;28;20033;-77
2021/10/04 11:41:33;;;;;;;6.95;1.63;;;18.50;95.70;;;;;;5055481;28;20021;-78
2021/10/04 11:44:04;;;;;;;8.02;1.80;;;18.80;98.00;;;;;;5055243;28;20025;-78
2021/10/04 11:46:37;;;;;;;5.80;1.58;;;20.80;97.70;;;;;;5053600;28;20025;-79
2021/10/04 11:49:12;;;;;;;6.93;1.98;;;21.90;92.20;;;;;;5053435;28;20025;-79
2021/10/04 11:51:47;;;;;;;6.03;1.75;;;25.70;81.10;;;;;;5055013;28;20028;-80
2021/10/04 11:54:13;;;;;;;;;;;30.20;68.30;;;;;;5053899;28;20032;-80
2021/10/04 11:56:41;;;;;;;4.68;1.40;;;30.50;61.30;;;;;;5053687;28;20423;-80
2021/10/04 11:59:07;;;;;;;5.28;1.75;;;29.50;63.40;;;;;;5053742;28;20029;-80
2021/10/04 12:01:37;;;;;;;8.05;1.80;;;32.60;60.60;;;;;;5053243;28;20055;-80
2021/10/04 12:04:12;;;;;;;5.15;1.92;;;35.30;54.00;;;;;;5054940;28;20048;-80
2021/10/04 12:06:44;;;;;;;6.30;2.15;;;34.30;51.50;;;;;;5054791;28;20480;-81
2021/10/04 12:09:22;;;;;;;5.63;2.00;;;34.30;52.00;;;;;;5054734;28;20527;-81
2021/10/04 12:11:55;;;;;;;5.85;2.10;;;35.00;51.10;;;;;;5053190;28;20025;-81
2021/10/04 12:14:22;;;;;;;;;;;34.30;50.60;;;;;;5055143;28;20048;-80
2021/10/04 12:16:50;;;;;;;6.70;1.92;;;32.80;50.10;;;;;;5053348;28;19905;-80
2021/10/04 12:19:16;;;;;;;6.90;2.10;;;33.40;50.10;;;;;;5054533;28;20029;-80
2021/10/04 12:21:46;;;;;;;6.57;1.98;;;34.90;48.30;;;;;;5054434;28;20059;-80
2021/10/04 12:24:17;;;;;;;8.77;2.10;;;35.20;48.70;;;;;;5054701;28;20025;-81
2021/10/04 12:26:46;;;;;;;7.18;2.30;;;32.20;50.20;;;;;;5052856;28;20048;-80
2021/10/04 12:29:12;;;;;;;6.28;2.13;;;33.70;50.20;;;;;;5053077;28;20438;-80
2021/10/04 12:31:38;;;;;;;7.55;2.17;;;34.70;47.30;;;;;;5052566;28;20072;-80
2021/10/04 12:34:26;;;;;;;9.10;2.35;;;33.70;48.20;;;;;;5053184;28;20075;-80
2021/10/04 12:36:55;;;;;;;5.85;1.90;;;35.70;48.50;;;;;;5054065;28;20550;-80
2021/10/04 12:39:36;;;;;;;6.82;2.30;;;34.70;49.40;;;;;;5054102;28;20029;-81
2021/10/04 12:42:02;;;;;;;7.47;2.20;;;34.70;49.60;;;;;;5052465;28;20025;-81
2021/10/04 12:44:36;;;;;;;8.20;2.40;;;33.50;48.70;;;;;;5054012;28;20100;-80
2021/10/04 12:47:07;;;;;;;9.45;2.40;;;33.90;49.20;;;;;;5054382;28;20029;-80
2021/10/04 12:49:34;;;;;;;6.25;2.10;;;34.40;49.00;;;;;;5052410;28;20107;-81
2021/10/04 12:52:02;;;;;;;8.38;2.40;;;36.20;47.40;;;;;;5052638;28;20036;-80